createdAt,value
2022-11-06T00:01:18.439Z,50.78
2022-11-06T00:03:47.624Z,50.20
2022-11-06T00:06:37.420Z,44.20
2022-11-06T00:09:11.139Z,41.20
2022-11-06T00:11:42.754Z,42.25
2022-11-06T00:14:12.162Z,43.67
2022-11-06T00:16:43.279Z,44.47
2022-11-06T00:19:13.147Z,43.40
2022-11-06T00:21:42.465Z,42.35
2022-11-06T00:24:15.724Z,45.83
2022-11-06T00:26:47.589Z,51.35
2022-11-06T00:29:20.511Z,45.75
2022-11-06T00:31:52.164Z,55.83
2022-11-06T00:34:21.293Z,42.85
2022-11-06T00:36:50.481Z,42.53
2022-11-06T00:39:19.748Z,41.97
2022-11-06T00:41:48.932Z,50.13
2022-11-06T00:44:18.180Z,45.58
2022-11-06T00:46:48.019Z,47.15
2022-11-06T00:49:17.204Z,40.00
2022-11-06T00:51:46.418Z,44.25
2022-11-06T00:54:16.064Z,37.75
2022-11-06T00:56:45.224Z,34.35
2022-11-06T00:59:15.839Z,38.20
2022-11-06T01:01:46.984Z,36.70
2022-11-06T01:04:24.435Z,33.60
2022-11-06T01:06:57.869Z,39.58
2022-11-06T01:09:29.648Z,37.42
2022-11-06T01:12:16.647Z,51.17
2022-11-06T01:14:46.565Z,49.63
2022-11-06T01:17:16.410Z,37.53
2022-11-06T01:19:45.590Z,36.55
2022-11-06T01:22:14.772Z,36.20
2022-11-06T01:24:44.379Z,35.58
2022-11-06T01:27:26.403Z,32.25
2022-11-06T01:29:57.826Z,27.20
2022-11-06T01:32:26.976Z,24.80
2022-11-06T01:34:56.180Z,23.27
2022-11-06T01:37:36.700Z,22.10
2022-11-06T01:40:07.358Z,32.17
2022-11-06T01:42:36.547Z,23.85
2022-11-06T01:45:39.474Z,26.75
2022-11-06T01:48:12.581Z,23.92
2022-11-06T01:50:46.045Z,23.38
2022-11-06T01:53:16.435Z,24.05
2022-11-06T01:55:48.781Z,24.67
2022-11-06T01:58:23.220Z,22.77
2022-11-06T02:00:52.690Z,27.85
2022-11-06T02:03:24.735Z,32.92
2022-11-06T02:06:03.945Z,29.38
2022-11-06T02:08:35.990Z,25.50
2022-11-06T02:11:08.210Z,28.48
2022-11-06T02:14:00.489Z,25.77
2022-11-06T02:17:24.585Z,26.85
2022-11-06T02:20:12.055Z,27.35
2022-11-06T02:22:56.196Z,27.52
2022-11-06T02:25:53.095Z,25.50
2022-11-06T02:28:35.737Z,42.53
2022-11-06T02:31:15.650Z,26.40
2022-11-06T02:33:56.078Z,18.23
2022-11-06T02:36:36.957Z,21.60
2022-11-06T02:39:18.863Z,27.95
2022-11-06T02:41:51.257Z,21.55
2022-11-06T02:44:29.198Z,21.30
2022-11-06T02:47:06.810Z,24.80
2022-11-06T02:49:50.514Z,24.77
2022-11-06T02:53:17.973Z,27.60
2022-11-06T02:56:06.698Z,26.40
2022-11-06T02:59:02.747Z,35.28
2022-11-06T03:02:25.288Z,22.20
2022-11-06T03:05:28.411Z,17.50
2022-11-06T03:08:24.757Z,19.70
2022-11-06T03:11:29.955Z,22.08
2022-11-06T03:14:36.282Z,21.08
2022-11-06T03:17:24.257Z,19.50
2022-11-06T03:20:14.236Z,18.45
2022-11-06T03:22:58.484Z,23.60
2022-11-06T03:26:14.854Z,25.63
2022-11-06T03:29:25.557Z,26.92
2022-11-06T03:32:28.358Z,20.27
2022-11-06T03:35:14.444Z,16.27
2022-11-06T03:37:53.576Z,17.60
2022-11-06T03:40:27.674Z,20.20
2022-11-06T03:43:03.667Z,21.77
2022-11-06T03:45:36.297Z,20.27
2022-11-06T03:48:45.769Z,24.02
2022-11-06T03:51:26.202Z,21.80
2022-11-06T03:54:03.483Z,18.77
2022-11-06T03:56:53.356Z,22.98
2022-11-06T03:59:26.310Z,17.75
2022-11-06T04:01:59.579Z,37.25
2022-11-06T04:04:49.038Z,24.30
2022-11-06T04:07:37.640Z,22.98
2022-11-06T04:10:30.677Z,20.83
2022-11-06T04:13:19.984Z,19.55
2022-11-06T04:15:55.522Z,17.75
2022-11-06T04:18:24.573Z,18.67
2022-11-06T04:21:49.626Z,18.45
2022-11-06T04:24:52.941Z,23.58
2022-11-06T04:27:37.915Z,19.25
2022-11-06T04:30:17.173Z,21.02
2022-11-06T04:33:08.287Z,26.75
2022-11-06T04:36:28.072Z,17.27
2022-11-06T04:39:08.102Z,18.27
2022-11-06T04:42:06.126Z,18.45
2022-11-06T04:44:48.909Z,18.38
2022-11-06T04:47:25.324Z,17.20
2022-11-06T04:50:00.354Z,18.40
2022-11-06T04:52:30.657Z,19.27
2022-11-06T04:55:00.823Z,12.18
2022-11-06T04:57:29.944Z,17.48
2022-11-06T04:59:59.283Z,15.07
2022-11-06T05:02:28.570Z,12.40
2022-11-06T05:04:57.787Z,13.45
2022-11-06T05:07:26.870Z,14.77
2022-11-06T05:09:56.039Z,12.80
2022-11-06T05:12:25.161Z,18.17
2022-11-06T05:14:54.272Z,11.65
2022-11-06T05:17:23.426Z,16.65
2022-11-06T05:19:52.478Z,15.27
2022-11-06T05:22:40.144Z,15.88
2022-11-06T05:25:09.745Z,14.48
2022-11-06T05:27:38.806Z,24.77
2022-11-06T05:30:09.103Z,15.20
2022-11-06T05:32:38.196Z,13.32
2022-11-06T05:35:07.841Z,11.73
2022-11-06T05:37:37.044Z,13.10
2022-11-06T05:40:06.931Z,9.02
2022-11-06T05:42:40.519Z,11.30
2022-11-06T05:45:11.790Z,10.85
2022-11-06T05:47:44.247Z,11.73
2022-11-06T05:50:13.609Z,10.32
2022-11-06T05:52:42.870Z,14.00
2022-11-06T05:55:14.996Z,9.63
2022-11-06T05:57:45.213Z,14.10
2022-11-06T06:00:15.570Z,14.65
2022-11-06T06:02:45.432Z,12.43
2022-11-06T06:05:15.731Z,15.85
2022-11-06T06:07:45.021Z,13.93
2022-11-06T06:10:14.256Z,14.55
2022-11-06T06:12:43.499Z,19.25
2022-11-06T06:15:15.987Z,8.77
2022-11-06T06:17:46.530Z,12.77
2022-11-06T06:20:16.246Z,22.33
2022-11-06T06:22:45.486Z,10.45
2022-11-06T06:25:22.338Z,13.50
2022-11-06T06:27:53.092Z,12.93
2022-11-06T06:30:24.062Z,15.10
2022-11-06T06:32:54.477Z,11.48
2022-11-06T06:35:23.684Z,15.52
2022-11-06T06:37:57.157Z,12.98
2022-11-06T06:40:27.826Z,14.60
2022-11-06T06:43:00.632Z,15.02
2022-11-06T06:45:29.785Z,37.28
2022-11-06T06:48:05.720Z,12.50
2022-11-06T06:50:35.271Z,16.23
2022-11-06T06:53:04.775Z,20.35
2022-11-06T06:55:35.640Z,11.45
2022-11-06T06:58:04.844Z,18.33
2022-11-06T07:00:34.186Z,16.98
2022-11-06T07:03:03.905Z,13.27
2022-11-06T07:05:33.836Z,19.90
2022-11-06T07:08:03.054Z,11.32
2022-11-06T07:10:33.896Z,9.77
2022-11-06T07:13:05.117Z,21.45
2022-11-06T07:15:34.685Z,18.73
2022-11-06T07:18:08.910Z,12.40
2022-11-06T07:20:38.478Z,12.15
2022-11-06T07:23:09.736Z,9.07
2022-11-06T07:25:39.207Z,19.15
2022-11-06T07:28:10.002Z,10.43
2022-11-06T07:30:39.399Z,8.85
2022-11-06T07:33:08.662Z,10.80
2022-11-06T07:35:37.934Z,9.23
2022-11-06T07:38:08.989Z,14.93
2022-11-06T07:40:38.825Z,9.00
2022-11-06T07:43:13.152Z,10.60
2022-11-06T07:45:43.261Z,11.90
2022-11-06T07:48:12.890Z,8.77
2022-11-06T07:50:42.295Z,10.80
2022-11-06T07:53:11.723Z,11.38
2022-11-06T07:55:42.422Z,9.55
2022-11-06T07:58:11.990Z,9.32
2022-11-06T08:00:41.533Z,10.13
2022-11-06T08:03:10.688Z,7.85
2022-11-06T08:05:39.855Z,12.27
2022-11-06T08:08:09.329Z,10.55
2022-11-06T08:10:41.490Z,14.93
2022-11-06T08:13:15.491Z,13.73
2022-11-06T08:15:45.567Z,16.85
2022-11-06T08:18:15.033Z,15.85
2022-11-06T08:20:44.710Z,10.13
2022-11-06T08:23:14.986Z,15.32
2022-11-06T08:25:44.126Z,20.15
2022-11-06T08:28:13.575Z,10.80
2022-11-06T08:30:43.175Z,11.57
2022-11-06T08:33:13.505Z,13.55
2022-11-06T08:35:42.722Z,23.13
2022-11-06T08:38:13.034Z,16.08
2022-11-06T08:40:42.862Z,9.50
2022-11-06T08:43:13.163Z,23.58
2022-11-06T08:45:44.480Z,12.43
2022-11-06T08:48:13.753Z,11.15
2022-11-06T08:50:43.327Z,16.98
2022-11-06T08:53:12.947Z,35.00
2022-11-06T08:55:42.456Z,11.85
2022-11-06T08:58:11.709Z,16.42
2022-11-06T09:00:41.203Z,17.45
2022-11-06T09:03:15.281Z,17.60
2022-11-06T09:05:46.014Z,16.95
2022-11-06T09:08:16.147Z,11.48
2022-11-06T09:10:46.186Z,14.13
2022-11-06T09:13:15.637Z,18.75
2022-11-06T09:15:45.238Z,16.48
2022-11-06T09:18:14.452Z,19.23
2022-11-06T09:20:43.687Z,19.70
2022-11-06T09:23:16.950Z,12.00
2022-11-06T09:25:46.329Z,11.95
2022-11-06T09:28:15.634Z,9.90
2022-11-06T09:30:44.870Z,14.43
2022-11-06T09:33:14.314Z,17.00
2022-11-06T09:35:43.841Z,12.25
2022-11-06T09:38:16.640Z,16.48
2022-11-06T09:41:03.929Z,19.40
2022-11-06T09:44:05.640Z,14.50
2022-11-06T09:46:47.663Z,17.08
2022-11-06T09:49:43.004Z,22.38
2022-11-06T09:52:40.826Z,27.00
2022-11-06T09:55:26.024Z,15.50
2022-11-06T09:58:18.349Z,16.05
2022-11-06T10:00:48.085Z,24.50
2022-11-06T10:04:01.482Z,12.23
2022-11-06T10:06:31.853Z,15.75
2022-11-06T10:09:07.412Z,24.13
2022-11-06T10:11:52.938Z,21.35
2022-11-06T10:14:36.644Z,19.02
2022-11-06T10:17:26.754Z,26.02
2022-11-06T10:20:26.463Z,18.45
2022-11-06T10:23:21.970Z,20.45
2022-11-06T10:26:17.360Z,21.10
2022-11-06T10:29:26.276Z,39.13
2022-11-06T10:32:42.839Z,22.92
2022-11-06T10:35:32.701Z,20.13
2022-11-06T10:38:25.808Z,29.00
2022-11-06T10:40:57.321Z,27.63
2022-11-06T10:43:51.551Z,26.02
2022-11-06T10:46:39.947Z,21.13
2022-11-06T10:49:42.154Z,21.70
2022-11-06T10:52:47.384Z,20.63
2022-11-06T10:56:11.132Z,21.38
2022-11-06T10:58:40.830Z,27.00
2022-11-06T11:01:16.071Z,31.35
2022-11-06T11:03:49.050Z,41.67
2022-11-06T11:06:23.611Z,25.73
2022-11-06T11:08:54.144Z,19.52
2022-11-06T11:11:29.465Z,28.98
2022-11-06T11:13:58.578Z,21.83
2022-11-06T11:16:42.328Z,29.33
2022-11-06T11:19:39.136Z,28.73
2022-11-06T11:22:22.118Z,36.63
2022-11-06T11:25:07.594Z,35.92
2022-11-06T11:27:46.366Z,36.40
2022-11-06T11:30:30.563Z,25.63
2022-11-06T11:33:00.671Z,24.25
2022-11-06T11:35:32.527Z,25.65
2022-11-06T11:38:22.413Z,32.33
2022-11-06T11:40:52.676Z,50.22
2022-11-06T11:43:33.517Z,45.00
2022-11-06T11:46:11.673Z,51.45
2022-11-06T11:48:58.523Z,41.88
2022-11-06T11:51:36.713Z,46.17
2022-11-06T11:54:29.567Z,42.50
2022-11-06T11:57:33.142Z,37.78
2022-11-06T12:00:08.943Z,38.08
2022-11-06T12:02:50.562Z,49.45
2022-11-06T12:05:38.240Z,37.97
2022-11-06T12:08:15.976Z,46.22
2022-11-06T12:10:46.576Z,31.88
2022-11-06T12:13:17.709Z,51.53
2022-11-06T12:16:04.029Z,32.72
2022-11-06T12:18:38.268Z,37.97
2022-11-06T12:21:15.213Z,84.60
2022-11-06T12:23:57.551Z,50.13
2022-11-06T12:26:49.689Z,51.60
2022-11-06T12:29:29.602Z,59.83
2022-11-06T12:32:38.104Z,45.67
2022-11-06T12:35:59.888Z,37.35
2022-11-06T12:38:56.601Z,45.10
2022-11-06T12:41:32.204Z,48.63
2022-11-06T12:44:01.563Z,36.85
2022-11-06T12:46:49.817Z,41.08
2022-11-06T12:52:42.934Z,43.95
2022-11-06T12:55:38.955Z,54.65
2022-11-06T12:58:51.723Z,35.80
2022-11-06T13:01:55.211Z,38.70
2022-11-06T13:04:31.805Z,56.17
2022-11-06T13:07:18.799Z,41.03
2022-11-06T13:10:06.233Z,34.53
2022-11-06T13:13:04.480Z,37.23
2022-11-06T13:15:48.826Z,41.47
2022-11-06T13:18:29.703Z,57.75
2022-11-06T13:21:30.853Z,42.63
2022-11-06T13:24:19.693Z,35.17
2022-11-06T13:27:23.870Z,60.65
2022-11-06T13:29:56.243Z,43.22
2022-11-06T13:32:28.704Z,62.50
2022-11-06T13:35:00.229Z,36.60
2022-11-06T13:37:53.747Z,48.22
2022-11-06T13:40:45.555Z,43.00
2022-11-06T13:43:23.798Z,40.03
2022-11-06T13:46:20.738Z,41.92
2022-11-06T13:48:55.371Z,43.38
2022-11-06T13:51:55.178Z,38.58
2022-11-06T13:55:06.502Z,36.15
2022-11-06T13:57:47.403Z,48.00
2022-11-06T14:03:55.598Z,45.65
2022-11-06T14:06:29.397Z,45.55
2022-11-06T14:09:20.959Z,44.30
2022-11-06T14:12:01.377Z,36.72
2022-11-06T14:14:34.132Z,39.28
2022-11-06T14:17:15.398Z,44.03
2022-11-06T14:23:33.290Z,49.85
2022-11-06T14:26:12.689Z,34.00
2022-11-06T14:28:44.861Z,54.50
2022-11-06T14:32:03.794Z,36.70
2022-11-06T14:34:35.812Z,34.05
2022-11-06T14:37:31.229Z,40.78
2022-11-06T14:40:05.976Z,50.80
2022-11-06T14:45:30.366Z,39.10
2022-11-06T14:47:59.613Z,60.10
2022-11-06T14:50:39.379Z,40.28
2022-11-06T14:53:27.106Z,46.38
2022-11-06T14:56:05.370Z,39.92
2022-11-06T14:58:58.347Z,38.47
2022-11-06T15:01:33.761Z,37.45
2022-11-06T15:04:26.190Z,37.60
2022-11-06T15:06:56.229Z,35.53
2022-11-06T15:09:25.310Z,51.95
2022-11-06T15:12:03.795Z,42.33
2022-11-06T15:17:18.907Z,38.53
2022-11-06T15:20:08.620Z,40.00
2022-11-06T15:23:04.210Z,54.78
2022-11-06T15:25:34.768Z,40.85
2022-11-06T15:28:15.886Z,39.47
2022-11-06T15:31:09.603Z,38.80
2022-11-06T15:34:02.639Z,36.60
2022-11-06T15:36:40.954Z,45.50
2022-11-06T15:39:59.136Z,40.63
2022-11-06T15:42:38.686Z,44.95
2022-11-06T15:45:20.766Z,46.05
2022-11-06T15:48:08.716Z,45.72
2022-11-06T15:50:43.688Z,45.95
2022-11-06T15:53:19.652Z,41.33
2022-11-06T15:56:10.072Z,54.90
2022-11-06T15:58:40.274Z,37.80
2022-11-06T16:01:12.927Z,43.15
2022-11-06T16:04:10.493Z,44.58
2022-11-06T16:06:43.212Z,42.63
2022-11-06T16:09:27.562Z,43.05
2022-11-06T16:11:58.008Z,43.78
2022-11-06T16:14:27.691Z,43.88
2022-11-06T16:16:58.965Z,42.72
2022-11-06T16:19:32.229Z,46.00
2022-11-06T16:22:28.475Z,36.83
2022-11-06T16:25:08.411Z,43.78
2022-11-06T16:27:42.778Z,48.83
2022-11-06T16:30:25.567Z,45.05
2022-11-06T16:32:55.259Z,42.05
2022-11-06T16:35:36.980Z,51.58
2022-11-06T16:38:42.080Z,49.45
2022-11-06T16:41:37.532Z,53.63
2022-11-06T16:44:31.881Z,56.85
2022-11-06T16:47:07.262Z,48.85
2022-11-06T16:49:41.353Z,51.75
2022-11-06T16:52:40.076Z,56.00
2022-11-06T16:55:31.583Z,45.55
2022-11-06T16:58:04.108Z,43.72
2022-11-06T17:00:34.750Z,43.25
2022-11-06T17:03:21.295Z,47.22
2022-11-06T17:05:59.732Z,43.50
2022-11-06T17:08:44.279Z,46.72
2022-11-06T17:11:22.721Z,47.65
2022-11-06T17:16:29.406Z,42.80
2022-11-06T17:18:58.635Z,41.85
2022-11-06T17:21:28.537Z,47.33
2022-11-06T17:24:07.610Z,45.33
2022-11-06T17:26:57.220Z,40.22
2022-11-06T17:29:26.500Z,50.17
2022-11-06T17:31:56.771Z,45.95
2022-11-06T17:34:26.080Z,47.95
2022-11-06T17:36:55.451Z,51.30
2022-11-06T17:39:26.709Z,46.42
2022-11-06T17:41:56.201Z,45.10
2022-11-06T17:44:25.328Z,53.80
2022-11-06T17:46:54.497Z,49.70
2022-11-06T17:49:23.659Z,43.65
2022-11-06T17:52:00.969Z,52.03
2022-11-06T17:54:37.973Z,44.25
2022-11-06T17:57:09.748Z,49.33
2022-11-06T17:59:39.000Z,51.22
2022-11-06T18:02:08.735Z,48.70
2022-11-06T18:04:40.246Z,49.00
2022-11-06T18:07:10.219Z,50.15
2022-11-06T18:09:39.440Z,52.30
2022-11-06T18:12:11.471Z,46.58
2022-11-06T18:14:40.680Z,53.28
2022-11-06T18:17:09.933Z,48.78
2022-11-06T18:19:39.183Z,52.38
2022-11-06T18:22:08.322Z,54.55
2022-11-06T18:24:41.480Z,44.50
2022-11-06T18:27:10.648Z,48.42
2022-11-06T18:29:39.815Z,43.88
2022-11-06T18:32:09.158Z,44.70
2022-11-06T18:34:38.329Z,43.50
2022-11-06T18:37:07.536Z,46.53
2022-11-06T18:39:37.575Z,48.08
2022-11-06T18:42:06.795Z,47.33
2022-11-06T18:44:41.454Z,43.53
2022-11-06T18:47:10.659Z,44.55
2022-11-06T18:49:39.819Z,42.92
2022-11-06T18:52:08.923Z,48.70
2022-11-06T18:54:38.431Z,41.30
2022-11-06T18:57:07.636Z,41.95
2022-11-06T18:59:36.803Z,51.30
2022-11-06T19:02:06.357Z,44.30
2022-11-06T19:04:35.649Z,47.97
2022-11-06T19:07:04.820Z,43.58
2022-11-06T19:09:33.998Z,47.03
2022-11-06T19:12:03.132Z,42.83
2022-11-06T19:14:32.269Z,46.05
2022-11-06T19:17:01.474Z,47.97
2022-11-06T19:19:30.703Z,42.85
2022-11-06T19:22:00.103Z,43.40
2022-11-06T19:24:29.265Z,46.53
2022-11-06T19:26:58.439Z,40.65
2022-11-06T19:29:27.681Z,46.38
2022-11-06T19:32:02.530Z,41.67
2022-11-06T19:34:36.673Z,47.33
2022-11-06T19:37:08.449Z,48.28
2022-11-06T19:39:38.324Z,43.97
2022-11-06T19:42:07.420Z,49.00
2022-11-06T19:44:36.584Z,50.72
2022-11-06T19:47:05.708Z,45.50
2022-11-06T19:49:35.123Z,49.60
2022-11-06T19:52:41.498Z,46.13
2022-11-06T19:55:26.057Z,44.20
2022-11-06T19:57:42.950Z,52.35
2022-11-06T20:00:12.883Z,47.38
2022-11-06T20:02:42.040Z,46.75
2022-11-06T20:05:11.216Z,46.85
2022-11-06T20:07:43.069Z,48.88
2022-11-06T20:10:12.473Z,47.53
2022-11-06T20:12:41.674Z,44.20
2022-11-06T20:15:11.249Z,45.72
2022-11-06T20:17:40.345Z,49.40
2022-11-06T20:20:10.401Z,52.22
2022-11-06T20:22:39.553Z,47.05
2022-11-06T20:25:09.187Z,48.25
2022-11-06T20:27:39.101Z,47.72
2022-11-06T20:30:10.224Z,44.45
2022-11-06T20:32:39.386Z,45.85
2022-11-06T20:35:09.816Z,52.85
2022-11-06T20:37:38.996Z,44.78
2022-11-06T20:40:09.265Z,42.85
2022-11-06T20:42:38.376Z,44.17
2022-11-06T20:45:09.385Z,41.95
2022-11-06T20:47:38.581Z,42.72
2022-11-06T20:50:08.155Z,46.78
2022-11-06T20:52:37.206Z,44.38
2022-11-06T20:55:06.910Z,49.15
2022-11-06T20:57:35.996Z,43.72
2022-11-06T21:00:06.627Z,41.05
2022-11-06T21:02:35.864Z,44.97
2022-11-06T21:05:05.395Z,45.35
2022-11-06T21:07:36.213Z,42.60
2022-11-06T21:10:05.843Z,47.95
2022-11-06T21:12:35.561Z,41.25
2022-11-06T21:15:04.860Z,46.97
2022-11-06T21:17:33.987Z,44.85
2022-11-06T21:20:03.160Z,43.33
2022-11-06T21:22:32.552Z,47.03
2022-11-06T21:25:01.620Z,44.50
2022-11-06T21:27:31.878Z,45.95
2022-11-06T21:30:01.016Z,46.80
2022-11-06T21:32:30.164Z,45.42
2022-11-06T21:34:59.245Z,46.65
2022-11-06T21:37:33.728Z,47.47
2022-11-06T21:40:03.379Z,41.53
2022-11-06T21:42:32.492Z,48.03
2022-11-06T21:45:01.547Z,44.85
2022-11-06T21:47:30.699Z,47.35
2022-11-06T21:49:59.775Z,50.63
2022-11-06T21:52:47.177Z,48.28
2022-11-06T21:55:34.497Z,48.28
2022-11-06T21:58:03.624Z,44.80
2022-11-06T22:00:33.358Z,48.50
2022-11-06T22:03:02.487Z,48.92
2022-11-06T22:05:31.676Z,52.05
2022-11-06T22:08:01.056Z,43.60
2022-11-06T22:10:30.327Z,48.22
2022-11-06T22:12:59.499Z,49.63
2022-11-06T22:15:28.624Z,44.20
2022-11-06T22:17:58.653Z,44.42
2022-11-06T22:20:27.884Z,47.90
2022-11-06T22:22:57.024Z,47.78
2022-11-06T22:25:26.212Z,51.42
2022-11-06T22:27:55.376Z,52.10
2022-11-06T22:30:24.565Z,53.85
2022-11-06T22:32:53.719Z,48.80
2022-11-06T22:35:22.909Z,46.70
2022-11-06T22:37:52.134Z,46.22
2022-11-06T22:40:21.292Z,47.55
2022-11-06T22:42:51.185Z,43.88
2022-11-06T22:45:20.992Z,49.40
2022-11-06T22:47:50.219Z,46.70
2022-11-06T22:50:19.564Z,51.08
2022-11-06T22:52:48.710Z,45.42
2022-11-06T22:55:17.991Z,43.33
2022-11-06T22:57:47.139Z,47.45
2022-11-06T23:00:17.219Z,62.55
2022-11-06T23:02:46.362Z,48.42
2022-11-06T23:05:15.776Z,48.30
2022-11-06T23:07:44.911Z,45.58
2022-11-06T23:10:14.053Z,52.45
2022-11-06T23:12:43.288Z,43.17
2022-11-06T23:15:12.873Z,48.15
2022-11-06T23:17:42.768Z,57.88
2022-11-06T23:20:12.840Z,48.85
2022-11-06T23:22:42.256Z,45.38
2022-11-06T23:25:13.333Z,52.33
2022-11-06T23:27:49.476Z,51.03
2022-11-06T23:30:19.373Z,54.20
2022-11-06T23:32:49.113Z,54.63
2022-11-06T23:35:19.535Z,51.47
2022-11-06T23:37:51.669Z,54.45
2022-11-06T23:40:20.935Z,55.42
2022-11-06T23:42:55.625Z,61.25
2022-11-06T23:45:43.411Z,61.05
2022-11-06T23:48:17.360Z,63.45
2022-11-06T23:50:47.867Z,67.75
2022-11-06T23:53:18.229Z,79.50
2022-11-06T23:55:47.508Z,70.45
2022-11-06T23:58:16.712Z,79.97
